< < Back
Terminal Aerodrome Forecast


Current Version              Previous Versions:   1  2  3  4  5  6  7  8  9  

Terminal Aerodrome Forecast

063
FTUS44 KOHX 301100
TAFBNA
TAF
KBNA 301125Z 3012/3112 36005KT P6SM FEW060
     FM301400 35006KT P6SM SKC
     FM310100 18003KT P6SM SCT250=

Latest METAR

101
SAUS70 KWBC 302300 RRD
MTRBNA
METAR KBNA 302253Z 32004KT 10SM CLR 20/M05 A3011 RMK AO2 SLP192
T02001050


USA.gov is the U.S. government's official web portal to all federal, state and local government web resources and services.